Schofield, Wisconsin
Current Conditions -  °F | °C
As of 4:54 AM on Sunday 21 Dec 2014 (Local Time) from KAUW Reporting Station
Haze Haze  
Wind Chill: 21°   Ceiling: 700
Heat Index: 29°   Visibility: 4mi
Dew Point: 26°   Wind: 8mph
Humidity: 89%   Direction: 170°S
Pressure: 30.08"   Gusts: NA
Location:  44.91°N, 89.6°W
Report Text: KAUW 211054Z AUTO 17007KT 4SM BR OVC007 M02/M03 A3008 RMK AO2 SLP204 T10171033
Loading
Personal Weather Stations






























Interactive Weather Map New forecast layout! Learn more

10-Day Weather Forecast

Advertisements
Track Severe Weather on mobile